Time;durP1;ratioP1;P1;durP2;ratioP2;P2;SDS_P1;SDS_P2;PMS_P1;PMS_P2;Temp;Humidity;BMP_temperature;BMP_pressure;BME280_temperature;BME280_humidity;BME280_pressure;Samples;Min_cycle;Max_cycle;Signal;HPM_P1;HPM_P2
2022/07/02 00:02:08;;;;;;;11.68;9.30;;;11.10;99.90;;;;;;5066664;28;20076;-86
2022/07/02 00:05:02;;;;;;;14.38;8.77;;;11.10;99.90;;;;;;5076117;28;20084;-84
2022/07/02 00:07:50;;;;;;;16.40;10.98;;;11.10;99.90;;;;;;5072094;28;20056;-85
2022/07/02 00:10:37;;;;;;;19.95;12.90;;;11.20;99.90;;;;;;5075795;28;20053;-85
2022/07/02 00:13:27;;;;;;;18.52;13.57;;;11.30;99.90;;;;;;5078751;28;20067;-87
2022/07/02 00:16:14;;;;;;;20.75;14.18;;;11.40;99.90;;;;;;5076806;28;20049;-86
2022/07/02 00:19:01;;;;;;;16.75;13.18;;;11.40;99.90;;;;;;5069051;28;20099;-83
2022/07/02 00:21:49;;;;;;;15.02;12.07;;;11.20;99.90;;;;;;5058997;28;20049;-83
2022/07/02 00:24:42;;;;;;;18.02;13.43;;;11.10;99.90;;;;;;5073234;28;20078;-84
2022/07/02 00:27:33;;;;;;;17.58;13.07;;;11.10;99.90;;;;;;5066787;28;20355;-84
2022/07/02 00:30:23;;;;;;;18.50;13.25;;;11.10;99.90;;;;;;5062277;28;20044;-85
2022/07/02 00:33:14;;;;;;;15.35;12.65;;;11.10;99.90;;;;;;5075129;28;20089;-84
2022/07/02 00:36:04;;;;;;;17.67;12.27;;;11.10;99.90;;;;;;5069273;28;20041;-85
2022/07/02 00:38:52;;;;;;;15.45;11.30;;;11.00;99.90;;;;;;5056385;28;20052;-85
2022/07/02 00:41:40;;;;;;;15.15;11.95;;;11.00;99.90;;;;;;5071735;28;20159;-85
2022/07/02 00:44:28;;;;;;;15.88;11.60;;;11.00;99.90;;;;;;5078449;28;20442;-86
2022/07/02 00:47:22;;;;;;;18.20;11.45;;;11.00;99.90;;;;;;5075239;28;20048;-85
2022/07/02 00:50:13;;;;;;;14.18;11.10;;;11.00;99.90;;;;;;5073384;28;20330;-85
2022/07/02 00:53:00;;;;;;;17.30;11.75;;;11.10;99.90;;;;;;5056086;28;20036;-86
2022/07/02 00:55:55;;;;;;;15.23;10.57;;;11.20;99.90;;;;;;5070566;28;20044;-85
2022/07/02 00:58:47;;;;;;;17.80;10.95;;;11.30;99.90;;;;;;5075779;28;20536;-85
2022/07/02 01:01:34;;;;;;;13.82;10.18;;;11.30;99.90;;;;;;5072586;28;20056;-85
2022/07/02 01:04:23;;;;;;;14.70;10.10;;;11.30;99.90;;;;;;5064085;28;20341;-83
2022/07/02 01:07:12;;;;;;;10.73;9.57;;;11.30;99.90;;;;;;5075241;28;20410;-85
2022/07/02 01:10:19;;;;;;;8.35;7.30;;;11.30;99.90;;;;;;5059375;28;20051;-85
2022/07/02 01:13:09;;;;;;;10.85;7.63;;;11.30;99.90;;;;;;5062852;28;20045;-86
2022/07/02 01:15:57;;;;;;;8.95;7.90;;;11.20;99.90;;;;;;5058652;28;20052;-85
2022/07/02 01:18:45;;;;;;;9.23;8.30;;;11.10;99.90;;;;;;5071339;28;20465;-85
2022/07/02 01:21:34;;;;;;;10.73;7.55;;;11.00;99.90;;;;;;5059335;28;20048;-84
2022/07/02 01:24:24;;;;;;;11.70;7.45;;;11.00;99.90;;;;;;5072624;28;20155;-85
2022/07/02 01:27:12;;;;;;;10.07;7.50;;;10.90;99.90;;;;;;5063823;28;20056;-85
2022/07/02 01:30:00;;;;;;;12.32;7.30;;;11.00;99.90;;;;;;5060978;28;20056;-84
2022/07/02 01:32:49;;;;;;;15.18;7.78;;;11.10;99.90;;;;;;5069156;28;20638;-86
2022/07/02 01:35:36;;;;;;;11.13;7.70;;;11.10;99.90;;;;;;5064594;28;20462;-84
2022/07/02 01:38:24;;;;;;;9.05;7.47;;;11.10;99.90;;;;;;5058534;28;20044;-84
2022/07/02 01:44:17;;;;;;;11.23;6.90;;;11.00;99.90;;;;;;5066686;28;20110;-85
2022/07/02 01:47:09;;;;;;;10.73;7.13;;;10.80;99.90;;;;;;5071731;28;20131;-85
2022/07/02 01:49:56;;;;;;;11.02;6.57;;;10.70;99.90;;;;;;5062838;28;20458;-85
2022/07/02 01:52:43;;;;;;;10.10;7.13;;;10.60;99.90;;;;;;5072975;28;20059;-85
2022/07/02 01:55:30;;;;;;;7.60;6.80;;;10.70;99.90;;;;;;5072563;28;20044;-85
2022/07/02 01:58:17;;;;;;;9.80;6.93;;;10.70;99.90;;;;;;5072968;28;20052;-84
2022/07/02 02:01:05;;;;;;;9.60;7.55;;;10.80;99.90;;;;;;5070213;28;20056;-85
2022/07/02 02:03:54;;;;;;;8.57;6.60;;;10.70;99.90;;;;;;5063629;28;20044;-83
2022/07/02 02:06:44;;;;;;;18.15;7.15;;;10.70;99.90;;;;;;5068562;28;20059;-83
2022/07/02 02:09:31;;;;;;;10.73;6.88;;;10.70;99.90;;;;;;5071911;28;20056;-85
2022/07/02 02:12:20;;;;;;;12.23;6.57;;;10.70;99.90;;;;;;5073609;28;20443;-84
2022/07/02 02:15:07;;;;;;;9.57;6.68;;;10.60;99.90;;;;;;5074693;28;20090;-85
2022/07/02 02:17:57;;;;;;;7.05;6.20;;;10.60;99.90;;;;;;5067793;28;20445;-85
2022/07/02 02:20:44;;;;;;;6.20;5.47;;;10.50;99.90;;;;;;5076178;28;20064;-85
2022/07/02 02:23:34;;;;;;;9.68;6.38;;;10.40;99.90;;;;;;5063345;28;20045;-83
2022/07/02 02:26:21;;;;;;;7.50;5.75;;;10.30;99.90;;;;;;5069006;28;20055;-85
2022/07/02 02:29:08;;;;;;;17.25;6.10;;;10.20;99.90;;;;;;5069927;28;20072;-83
2022/07/02 02:31:58;;;;;;;16.55;6.30;;;10.10;99.90;;;;;;5071413;28;20106;-83
2022/07/02 02:34:50;;;;;;;10.77;6.50;;;10.00;99.90;;;;;;5068028;28;20041;-83
2022/07/02 02:37:37;;;;;;;11.05;6.72;;;10.00;99.90;;;;;;5068147;28;20052;-83
2022/07/02 02:40:24;;;;;;;9.55;6.03;;;9.90;99.90;;;;;;5064930;28;20500;-84
2022/07/02 02:43:11;;;;;;;8.88;6.57;;;9.90;99.90;;;;;;5065336;28;20076;-84
2022/07/02 02:45:59;;;;;;;7.95;5.90;;;9.90;99.90;;;;;;5060067;28;20138;-84
2022/07/02 02:48:47;;;;;;;11.25;6.45;;;9.90;99.90;;;;;;5074824;28;20048;-84
2022/07/02 02:51:36;;;;;;;6.85;5.60;;;9.80;99.90;;;;;;5075692;28;20076;-84
2022/07/02 02:54:23;;;;;;;12.57;6.53;;;9.80;99.90;;;;;;5074349;28;20097;-86
2022/07/02 02:57:11;;;;;;;10.23;5.90;;;9.80;99.90;;;;;;5079302;28;20041;-83
2022/07/02 02:59:58;;;;;;;9.65;6.43;;;9.80;99.90;;;;;;5078003;28;20052;-82
2022/07/02 03:02:47;;;;;;;8.82;5.80;;;9.80;99.90;;;;;;5089942;28;20044;-84
2022/07/02 03:05:35;;;;;;;9.43;6.22;;;9.70;99.90;;;;;;5078993;28;20041;-84
2022/07/02 03:08:22;;;;;;;8.55;6.28;;;9.80;99.90;;;;;;5075681;28;20044;-84
2022/07/02 03:11:09;;;;;;;7.68;5.68;;;9.80;99.90;;;;;;5073751;28;20044;-84
2022/07/02 03:13:56;;;;;;;8.07;6.20;;;9.80;99.90;;;;;;5075177;28;20554;-84
2022/07/02 03:16:43;;;;;;;8.35;6.20;;;9.80;99.90;;;;;;5073122;28;20064;-83
2022/07/02 03:19:30;;;;;;;9.32;6.50;;;9.80;99.90;;;;;;5074403;28;20045;-84
2022/07/02 03:22:18;;;;;;;12.18;7.28;;;9.70;99.90;;;;;;5056954;28;20067;-83
2022/07/02 03:25:06;;;;;;;10.77;7.90;;;9.80;99.90;;;;;;5061082;28;20071;-84
2022/07/02 03:27:56;;;;;;;14.73;10.00;;;9.90;99.90;;;;;;5070498;28;20067;-84
2022/07/02 03:30:43;;;;;;;14.50;9.32;;;10.00;99.90;;;;;;5071550;28;20040;-84
2022/07/02 03:33:33;;;;;;;14.93;10.48;;;9.90;99.90;;;;;;5074362;28;20052;-84
2022/07/02 03:36:20;;;;;;;14.32;9.45;;;9.90;99.90;;;;;;5074975;28;20439;-85
2022/07/02 03:39:08;;;;;;;16.23;8.77;;;9.90;99.90;;;;;;5073653;28;20083;-84
2022/07/02 03:41:57;;;;;;;13.95;7.47;;;10.00;99.90;;;;;;5075751;28;20049;-84
2022/07/02 03:44:44;;;;;;;12.95;7.85;;;10.10;99.90;;;;;;5075279;28;20114;-85
2022/07/02 03:47:33;;;;;;;9.63;7.70;;;10.00;99.90;;;;;;5066081;28;20048;-84
2022/07/02 03:50:21;;;;;;;11.43;7.82;;;10.00;99.90;;;;;;5075567;28;20051;-85
2022/07/02 03:53:12;;;;;;;12.48;8.02;;;10.00;99.90;;;;;;5073855;28;20451;-85
2022/07/02 03:55:59;;;;;;;11.65;7.60;;;9.80;99.90;;;;;;5075520;28;20048;-84
2022/07/02 03:58:48;;;;;;;9.90;7.55;;;9.80;99.90;;;;;;5075392;28;20141;-85
2022/07/02 04:01:44;;;;;;;15.35;8.77;;;9.80;99.90;;;;;;5071697;28;20141;-85
2022/07/02 04:04:31;;;;;;;11.70;8.63;;;9.80;99.90;;;;;;5071852;28;20143;-84
2022/07/02 04:07:21;;;;;;;10.75;8.75;;;9.90;99.90;;;;;;5042920;28;20036;-84
2022/07/02 04:10:09;;;;;;;12.75;9.30;;;10.00;99.90;;;;;;5063400;28;20472;-86
2022/07/02 04:12:56;;;;;;;13.32;9.82;;;10.10;99.90;;;;;;5067826;28;20044;-86
2022/07/02 04:15:43;;;;;;;14.98;9.25;;;10.30;99.90;;;;;;5054964;28;20535;-85
2022/07/02 04:18:32;;;;;;;15.25;9.30;;;10.30;99.90;;;;;;5059008;28;20193;-86
2022/07/02 04:21:20;;;;;;;12.18;9.15;;;10.40;99.90;;;;;;5073391;28;20049;-87
2022/07/02 04:24:07;;;;;;;15.88;9.95;;;10.30;99.90;;;;;;5073431;28;20044;-86
2022/07/02 04:26:55;;;;;;;18.50;9.85;;;10.30;99.90;;;;;;5070876;28;20048;-86
2022/07/02 04:29:42;;;;;;;14.73;9.68;;;10.40;99.90;;;;;;5076391;28;20102;-85
2022/07/02 04:32:29;;;;;;;13.75;9.50;;;10.50;99.90;;;;;;5070592;28;20062;-85
2022/07/02 04:35:17;;;;;;;15.77;8.85;;;10.60;99.90;;;;;;5074215;28;20408;-85
2022/07/02 04:38:05;;;;;;;13.35;7.45;;;10.70;99.90;;;;;;5071768;28;20128;-85
2022/07/02 04:40:52;;;;;;;8.20;6.50;;;10.60;99.90;;;;;;5072349;28;20053;-86
2022/07/02 04:43:40;;;;;;;12.48;7.38;;;10.60;99.90;;;;;;5073491;28;20053;-86
2022/07/02 04:46:27;;;;;;;10.57;8.93;;;10.60;99.90;;;;;;5072553;28;20052;-86
2022/07/02 04:49:15;;;;;;;11.73;7.35;;;10.60;99.90;;;;;;5084438;28;20162;-86
2022/07/02 04:52:02;;;;;;;10.88;8.93;;;10.70;99.90;;;;;;5081698;28;20118;-87
2022/07/02 04:54:52;;;;;;;13.60;9.45;;;10.80;99.90;;;;;;5069796;28;21548;-87
2022/07/02 04:57:39;;;;;;;22.73;8.82;;;10.90;99.90;;;;;;5071073;28;20041;-86
2022/07/02 05:00:27;;;;;;;16.33;8.50;;;11.00;99.90;;;;;;5059400;28;20040;-85
2022/07/02 05:03:14;;;;;;;8.65;7.80;;;11.00;99.90;;;;;;5059163;28;20056;-85
2022/07/02 05:06:03;;;;;;;11.88;9.93;;;11.10;99.90;;;;;;5075042;28;20047;-87
2022/07/02 05:08:53;;;;;;;16.98;11.18;;;11.20;99.90;;;;;;5087786;28;20047;-86
2022/07/02 05:11:40;;;;;;;16.63;11.63;;;11.40;99.90;;;;;;5058370;28;20189;-86
2022/07/02 05:14:30;;;;;;;16.25;11.10;;;11.50;99.90;;;;;;5073190;28;20045;-86
2022/07/02 05:17:17;;;;;;;18.42;13.77;;;11.60;99.90;;;;;;5060293;28;20090;-88
2022/07/02 05:20:05;;;;;;;18.80;14.10;;;11.80;99.90;;;;;;5054558;28;20152;-88
2022/07/02 05:22:59;;;;;;;16.45;13.30;;;11.90;99.90;;;;;;5062208;28;20108;-86
2022/07/02 05:38:04;;;;;;;7.97;7.15;;;12.60;99.90;;;;;;5076692;28;20021;-83
2022/07/02 05:40:51;;;;;;;10.40;7.82;;;12.60;99.90;;;;;;5083834;28;20116;-82
2022/07/02 05:43:38;;;;;;;12.45;8.82;;;12.70;99.90;;;;;;5082365;28;20067;-85
2022/07/02 05:46:26;;;;;;;14.95;10.98;;;12.80;99.90;;;;;;5077483;28;20137;-85
2022/07/02 05:49:13;;;;;;;14.80;12.10;;;12.90;99.90;;;;;;5069328;28;20056;-88
2022/07/02 05:52:00;;;;;;;19.70;15.30;;;13.00;99.90;;;;;;5064992;28;20056;-84
2022/07/02 05:54:47;;;;;;;16.17;11.77;;;13.00;99.90;;;;;;5056080;28;20040;-85
2022/07/02 05:57:44;;;;;;;16.50;12.27;;;13.10;99.90;;;;;;5060151;28;20039;-86
2022/07/02 06:00:34;;;;;;;21.27;11.55;;;13.20;99.90;;;;;;5060866;28;20056;-85
2022/07/02 06:03:21;;;;;;;13.98;10.55;;;13.30;99.90;;;;;;5062969;28;20052;-86
2022/07/02 06:09:17;;;;;;;13.15;9.88;;;13.40;99.90;;;;;;5072645;28;20056;-86
2022/07/02 06:12:04;;;;;;;12.75;9.60;;;13.60;99.90;;;;;;5077565;28;20036;-85
2022/07/02 06:14:51;;;;;;;8.95;7.90;;;13.70;99.90;;;;;;5068418;28;20205;-86
2022/07/02 06:17:39;;;;;;;10.70;7.60;;;13.80;99.90;;;;;;5079325;28;20052;-88
2022/07/02 06:20:27;;;;;;;10.95;6.93;;;13.90;99.90;;;;;;5061658;28;20129;-85
2022/07/02 06:23:16;;;;;;;6.88;5.55;;;13.90;99.90;;;;;;5052766;28;20113;-85
2022/07/02 06:26:05;;;;;;;5.63;4.97;;;14.00;99.90;;;;;;5071505;28;20060;-85
2022/07/02 06:28:53;;;;;;;7.00;5.30;;;14.10;99.90;;;;;;5075003;28;20385;-85
2022/07/02 06:31:42;;;;;;;5.43;4.38;;;14.30;99.90;;;;;;5072616;28;20086;-86
2022/07/02 06:34:30;;;;;;;6.38;4.63;;;14.50;99.90;;;;;;5073793;28;20480;-87
2022/07/02 06:37:17;;;;;;;8.80;4.50;;;14.70;99.90;;;;;;5076844;28;20045;-85
2022/07/02 06:40:05;;;;;;;8.10;4.60;;;14.90;99.90;;;;;;5074382;28;20036;-84
2022/07/02 06:42:56;;;;;;;6.78;3.95;;;15.00;99.90;;;;;;5077515;28;20045;-85
2022/07/02 06:45:43;;;;;;;4.35;3.92;;;15.10;99.90;;;;;;5076433;28;20044;-85
2022/07/02 06:48:30;;;;;;;4.97;3.13;;;15.30;99.90;;;;;;5073468;28;20040;-88
2022/07/02 06:51:19;;;;;;;5.13;3.30;;;15.50;99.90;;;;;;5074306;28;20122;-89
2022/07/02 06:54:06;;;;;;;6.18;2.80;;;16.00;74.40;;;;;;5077490;28;20040;-90
2022/07/02 06:56:53;;;;;;;5.10;2.50;;;16.20;1.00;;;;;;5081695;28;20127;-90
2022/07/02 06:59:40;;;;;;;3.17;2.30;;;16.50;1.00;;;;;;5074723;28;20036;-89
2022/07/02 07:02:30;;;;;;;2.60;2.08;;;16.70;1.00;;;;;;5071321;28;20385;-88
2022/07/02 07:05:27;;;;;;;2.28;1.80;;;17.10;1.00;;;;;;5060537;28;20393;-89
2022/07/02 07:08:14;;;;;;;3.90;1.90;;;17.50;1.00;;;;;;5076376;28;20044;-88
2022/07/02 07:11:04;;;;;;;1.50;1.40;;;17.90;99.90;;;;;;5071867;28;20132;-87
2022/07/02 07:13:51;;;;;;;2.10;1.55;;;18.30;99.90;;;;;;5081060;28;20437;-88
2022/07/02 07:16:39;;;;;;;1.83;1.30;;;18.70;99.90;;;;;;5082749;28;20119;-87
2022/07/02 07:19:26;;;;;;;2.47;1.42;;;19.10;1.00;;;;;;5081180;28;20054;-86
2022/07/02 07:22:13;;;;;;;1.27;1.02;;;19.30;1.00;;;;;;5070287;28;20045;-88
2022/07/02 07:25:03;;;;;;;3.90;0.88;;;19.60;99.90;;;;;;5054850;28;20071;-86
2022/07/02 07:27:51;;;;;;;3.63;1.38;;;20.10;99.90;;;;;;5080418;28;20123;-86
2022/07/02 07:30:42;;;;;;;5.63;1.00;;;20.30;99.90;;;;;;5069843;28;20036;-85
2022/07/02 07:33:29;;;;;;;0.93;0.77;;;20.70;29.80;;;;;;5071350;28;20044;-88
2022/07/02 07:36:21;;;;;;;0.95;0.85;;;21.20;99.90;;;;;;5073343;28;20456;-86
2022/07/02 07:39:11;;;;;;;1.08;0.82;;;21.40;99.90;;;;;;5071037;28;20044;-86
2022/07/02 07:41:58;;;;;;;6.57;0.88;;;21.50;3.50;;;;;;5071295;28;20174;-85
2022/07/02 07:44:45;;;;;;;2.05;0.68;;;21.70;52.80;;;;;;5064111;28;20095;-87
2022/07/02 07:47:33;;;;;;;1.67;0.77;;;21.80;99.70;;;;;;5064462;28;20135;-84
2022/07/02 07:50:22;;;;;;;2.00;0.80;;;21.50;1.00;;;;;;5078458;28;20112;-84
2022/07/02 07:53:09;;;;;;;1.27;0.80;;;20.80;1.00;;;;;;5061328;28;20055;-87
2022/07/02 07:55:59;;;;;;;0.98;0.60;;;21.30;6.20;;;;;;5059028;28;20100;-87
2022/07/02 07:58:46;;;;;;;2.03;0.90;;;21.90;1.00;;;;;;5060872;28;20067;-86
2022/07/02 08:01:34;;;;;;;0.85;0.63;;;22.10;1.00;;;;;;5057294;28;20053;-84
2022/07/02 08:04:21;;;;;;;3.35;0.60;;;22.40;1.00;;;;;;5075491;28;20040;-87
2022/07/02 08:07:11;;;;;;;2.25;0.70;;;22.60;99.90;;;;;;5068098;28;20048;-85
2022/07/02 08:09:58;;;;;;;0.95;0.68;;;22.50;99.90;;;;;;5074766;28;20037;-87
2022/07/02 08:12:47;;;;;;;2.35;0.50;;;22.60;99.90;;;;;;5055523;28;20225;-89
2022/07/02 08:15:37;;;;;;;1.48;0.50;;;23.20;99.90;;;;;;5068748;28;20063;-86
2022/07/02 08:18:25;;;;;;;2.92;0.50;;;23.60;99.90;;;;;;5072489;28;20441;-84
2022/07/02 08:21:12;;;;;;;2.35;0.50;;;24.00;99.90;;;;;;5092112;28;20060;-83
2022/07/02 08:24:01;;;;;;;0.47;0.47;;;23.60;99.90;;;;;;5087345;28;20124;-86
2022/07/02 08:26:48;;;;;;;0.73;0.40;;;23.40;99.90;;;;;;5075865;28;20045;-86
2022/07/02 08:29:36;;;;;;;0.95;0.52;;;23.40;99.90;;;;;;5067763;28;20059;-85
2022/07/02 08:32:25;;;;;;;2.28;0.50;;;23.30;99.90;;;;;;5070714;28;20166;-90
2022/07/02 08:35:12;;;;;;;0.40;0.40;;;23.50;99.90;;;;;;5064133;28;20045;-89
2022/07/02 08:37:59;;;;;;;0.30;0.30;;;23.80;99.90;;;;;;5074550;28;20053;-88
2022/07/02 08:40:48;;;;;;;1.95;0.50;;;24.10;99.90;;;;;;5074730;28;20071;-88
2022/07/02 08:43:37;;;;;;;3.05;0.52;;;24.10;99.90;;;;;;5047753;28;20059;-84
2022/07/02 08:46:26;;;;;;;0.30;0.30;;;24.40;99.90;;;;;;5069729;28;20059;-89
2022/07/02 08:49:19;;;;;;;0.73;0.30;;;24.70;99.90;;;;;;5073545;28;20125;-87
2022/07/02 08:52:08;;;;;;;2.85;0.32;;;24.70;99.90;;;;;;5059564;28;20044;-86
2022/07/02 08:54:55;;;;;;;0.98;0.55;;;24.80;99.90;;;;;;5076272;28;20135;-86
2022/07/02 08:57:50;;;;;;;1.05;0.30;;;24.90;99.90;;;;;;5070962;28;20041;-87
2022/07/02 09:00:39;;;;;;;0.40;0.40;;;24.90;99.90;;;;;;5069801;28;20461;-88
2022/07/02 09:03:28;;;;;;;0.40;0.35;;;25.00;99.90;;;;;;5075564;28;20120;-87
2022/07/02 09:06:19;;;;;;;1.30;0.57;;;25.00;99.90;;;;;;5070512;28;20435;-89
2022/07/02 09:09:09;;;;;;;1.05;0.43;;;25.20;99.90;;;;;;5074344;28;20466;-88
2022/07/02 09:11:57;;;;;;;0.98;0.30;;;25.20;99.90;;;;;;5059462;28;20118;-89
2022/07/02 09:14:44;;;;;;;0.40;0.30;;;25.60;99.90;;;;;;5073291;28;20045;-86
2022/07/02 09:17:32;;;;;;;2.78;0.35;;;25.70;99.90;;;;;;5056520;28;20044;-88
2022/07/02 09:20:20;;;;;;;0.88;0.30;;;26.20;99.90;;;;;;5057208;28;20146;-86
2022/07/02 09:23:20;;;;;;;1.83;0.57;;;26.40;3.90;;;;;;5063912;28;20049;-90
2022/07/02 09:26:22;;;;;;;1.95;0.40;;;26.60;5.70;;;;;;5074078;28;20138;-87
2022/07/02 09:29:09;;;;;;;1.30;0.53;;;26.70;2.10;;;;;;5064286;28;20059;-87
2022/07/02 09:31:56;;;;;;;1.83;0.68;;;25.90;1.00;;;;;;5080342;28;20055;-86
2022/07/02 09:34:46;;;;;;;0.55;0.40;;;26.10;1.00;;;;;;5070664;28;20197;-84
2022/07/02 09:37:34;;;;;;;2.20;0.50;;;26.30;1.00;;;;;;5061369;28;20056;-86
2022/07/02 09:40:21;;;;;;;1.27;0.40;;;26.40;1.00;;;;;;5064938;28;20116;-87
2022/07/02 09:43:08;;;;;;;3.28;0.40;;;25.90;1.00;;;;;;5058373;28;20307;-86
2022/07/02 09:46:00;;;;;;;0.70;0.40;;;26.30;1.00;;;;;;5059820;28;20059;-85
2022/07/02 09:48:48;;;;;;;0.50;0.30;;;26.80;1.00;;;;;;5083094;28;20052;-86
2022/07/02 09:51:54;;;;;;;1.17;0.30;;;27.20;1.00;;;;;;5074934;28;20052;-84
2022/07/02 09:54:42;;;;;;;0.73;0.30;;;27.00;1.00;;;;;;5061566;28;20045;-87
2022/07/02 09:57:30;;;;;;;1.60;0.35;;;27.70;1.00;;;;;;5073998;28;20045;-85
2022/07/02 10:00:18;;;;;;;1.88;0.47;;;27.90;1.00;;;;;;5078936;28;20048;-86
2022/07/02 10:03:05;;;;;;;0.63;0.35;;;27.90;1.00;;;;;;5074120;28;20338;-87
2022/07/02 10:05:52;;;;;;;1.60;0.20;;;27.50;1.00;;;;;;5058782;28;20369;-83
2022/07/02 10:08:43;;;;;;;1.38;0.30;;;27.40;1.00;;;;;;5079939;28;20095;-87
2022/07/02 10:11:31;;;;;;;2.13;0.50;;;27.10;1.00;;;;;;5074919;28;20504;-87
2022/07/02 10:14:21;;;;;;;0.68;0.30;;;27.40;1.00;;;;;;5059379;28;20056;-87
2022/07/02 10:17:09;;;;;;;1.83;0.40;;;27.40;1.00;;;;;;5076083;28;20090;-88
2022/07/02 10:19:57;;;;;;;0.95;0.63;;;27.50;1.00;;;;;;5076727;28;20139;-88
2022/07/02 10:22:44;;;;;;;1.75;0.40;;;28.10;1.00;;;;;;5074063;28;20155;-86
2022/07/02 10:25:33;;;;;;;0.93;0.40;;;28.40;1.00;;;;;;5059207;28;20145;-86
2022/07/02 10:28:20;;;;;;;0.52;0.32;;;29.10;1.00;;;;;;5055392;28;20060;-88
2022/07/02 10:31:16;;;;;;;3.42;0.40;;;28.90;1.00;;;;;;5070579;28;20581;-85
2022/07/02 10:34:25;;;;;;;0.38;0.20;;;28.30;1.00;;;;;;5066800;28;20052;-88
2022/07/02 10:37:14;;;;;;;0.22;0.20;;;29.10;1.00;;;;;;5072212;28;20120;-85
2022/07/02 10:40:02;;;;;;;1.45;0.57;;;29.70;1.00;;;;;;5078386;28;20464;-86
2022/07/02 10:42:50;;;;;;;0.60;0.32;;;29.40;1.00;;;;;;5074597;28;20068;-84
2022/07/02 10:45:38;;;;;;;0.70;0.30;;;29.60;1.00;;;;;;5066254;28;20041;-89
2022/07/02 10:48:26;;;;;;;0.75;0.38;;;29.30;1.00;;;;;;5074526;28;20044;-89
2022/07/02 10:51:30;;;;;;;1.25;0.40;;;29.40;1.00;;;;;;5073953;28;20433;-88
2022/07/02 10:54:17;;;;;;;1.95;0.47;;;29.70;1.00;;;;;;5071823;28;20068;-87
2022/07/02 10:57:15;;;;;;;0.50;0.38;;;30.10;1.00;;;;;;5062118;28;20108;-87
2022/07/02 11:00:03;;;;;;;2.05;0.30;;;30.10;1.00;;;;;;5072671;28;20079;-85
2022/07/02 11:02:53;;;;;;;0.50;0.30;;;29.90;1.00;;;;;;5055377;28;20048;-91
2022/07/02 11:06:05;;;;;;;2.85;0.30;;;29.90;1.00;;;;;;5069877;28;20055;-88
2022/07/02 11:09:01;;;;;;;1.92;0.25;;;29.90;1.00;;;;;;5072738;28;20055;-88
2022/07/02 11:11:58;;;;;;;0.68;0.30;;;29.70;1.00;;;;;;5076634;28;20040;-87
2022/07/02 11:14:56;;;;;;;1.50;0.30;;;30.50;1.00;;;;;;5069647;28;20070;-86
2022/07/02 11:18:09;;;;;;;0.80;0.30;;;29.80;1.00;;;;;;5070350;28;20079;-86
2022/07/02 11:20:59;;;;;;;3.22;0.70;;;29.90;1.00;;;;;;5072375;28;20179;-87
2022/07/02 11:23:47;;;;;;;0.40;0.20;;;29.80;1.00;;;;;;5075052;28;20045;-86
2022/07/02 11:26:34;;;;;;;1.65;0.25;;;29.50;1.00;;;;;;5075986;28;20041;-84
2022/07/02 11:29:21;;;;;;;1.58;0.22;;;29.20;1.00;;;;;;5072766;28;20854;-84
2022/07/02 11:32:11;;;;;;;2.50;0.80;;;29.60;1.00;;;;;;5075261;28;20485;-85
2022/07/02 11:34:59;;;;;;;1.48;0.40;;;30.10;1.00;;;;;;5060849;28;20100;-86
2022/07/02 11:37:46;;;;;;;0.30;0.25;;;31.00;1.00;;;;;;5077962;28;20044;-87
2022/07/02 11:40:33;;;;;;;0.50;0.30;;;31.00;1.00;;;;;;5073773;28;20044;-86
2022/07/02 11:43:23;;;;;;;0.20;0.20;;;30.70;1.00;;;;;;5076873;28;20060;-86
2022/07/02 11:46:17;;;;;;;0.43;0.30;;;30.70;1.00;;;;;;5075560;28;20052;-88
2022/07/02 11:49:15;;;;;;;0.93;0.20;;;30.50;1.00;;;;;;5092537;28;20040;-86
2022/07/02 11:52:05;;;;;;;2.58;0.40;;;29.50;1.00;;;;;;5084894;28;20065;-87
2022/07/02 11:54:52;;;;;;;0.68;0.20;;;29.80;1.00;;;;;;5072858;28;20040;-85
2022/07/02 11:57:39;;;;;;;0.40;0.30;;;30.70;1.00;;;;;;5071806;28;20457;-85
2022/07/02 12:00:33;;;;;;;0.38;0.30;;;30.50;1.00;;;;;;5068252;28;20063;-86
2022/07/02 12:03:20;;;;;;;1.10;0.40;;;30.50;1.00;;;;;;5070761;28;20052;-85
2022/07/02 12:06:09;;;;;;;1.13;0.35;;;31.40;1.00;;;;;;5071915;28;20040;-84
2022/07/02 12:08:58;;;;;;;0.80;0.20;;;31.70;1.00;;;;;;5066034;28;20041;-85
2022/07/02 12:11:49;;;;;;;0.47;0.30;;;32.20;1.00;;;;;;5059757;28;20049;-85
2022/07/02 12:14:40;;;;;;;0.73;0.32;;;32.60;1.00;;;;;;5073583;28;20075;-87
2022/07/02 12:17:35;;;;;;;0.70;0.25;;;31.50;1.00;;;;;;5075611;28;20262;-85
2022/07/02 12:20:24;;;;;;;0.98;0.47;;;31.10;1.00;;;;;;5060396;28;20047;-86
2022/07/02 12:23:11;;;;;;;4.05;0.30;;;31.00;1.00;;;;;;5076169;28;20059;-87
2022/07/02 12:25:58;;;;;;;1.65;0.30;;;30.20;1.00;;;;;;5070720;28;20033;-87
2022/07/02 12:32:08;;;;;;;0.45;0.40;;;31.10;1.00;;;;;;5072418;28;20052;-89
2022/07/02 12:35:00;;;;;;;0.50;0.30;;;30.30;1.00;;;;;;5068699;28;20099;-87
2022/07/02 12:37:52;;;;;;;2.70;0.28;;;30.10;1.00;;;;;;5076668;28;20391;-87
2022/07/02 12:40:40;;;;;;;0.60;0.30;;;30.30;1.00;;;;;;5080698;28;20491;-88
2022/07/02 12:43:28;;;;;;;0.43;0.32;;;31.10;1.00;;;;;;5071679;28;20180;-90
2022/07/02 12:46:15;;;;;;;0.63;0.20;;;31.30;1.00;;;;;;5056411;28;20365;-87
2022/07/02 12:49:17;;;;;;;0.85;0.30;;;32.20;1.00;;;;;;5068665;28;20062;-88
2022/07/02 12:52:04;;;;;;;1.65;0.20;;;32.30;1.00;;;;;;5071442;28;20044;-88
2022/07/02 12:54:54;;;;;;;0.40;0.30;;;31.70;1.00;;;;;;5063127;28;20506;-88
2022/07/02 12:57:43;;;;;;;0.70;0.40;;;31.50;1.00;;;;;;5073575;28;20057;-85
2022/07/02 13:00:34;;;;;;;0.95;0.40;;;30.70;1.00;;;;;;5076793;28;20052;-89
2022/07/02 13:03:28;;;;;;;0.40;0.25;;;30.80;1.00;;;;;;5087734;28;20116;-87
2022/07/02 13:06:15;;;;;;;1.55;0.40;;;30.50;1.00;;;;;;5072382;28;20045;-87
2022/07/02 13:09:02;;;;;;;0.28;0.22;;;30.80;1.00;;;;;;5067419;28;20044;-86
2022/07/02 13:11:53;;;;;;;0.50;0.30;;;31.20;1.00;;;;;;5067537;28;20053;-85
2022/07/02 13:15:05;;;;;;;0.40;0.40;;;31.50;1.00;;;;;;5074767;28;20052;-87
2022/07/02 13:18:26;;;;;;;4.25;0.75;;;31.60;1.00;;;;;;5073908;28;20040;-87
2022/07/02 13:21:13;;;;;;;0.88;0.55;;;31.70;1.00;;;;;;5066813;28;20067;-87
2022/07/02 13:24:00;;;;;;;1.00;0.43;;;32.30;1.00;;;;;;5069563;28;20047;-85
2022/07/02 13:26:50;;;;;;;1.92;0.40;;;31.80;1.00;;;;;;5073195;28;20049;-86
2022/07/02 13:29:37;;;;;;;1.05;0.30;;;32.30;1.00;;;;;;5065444;28;20110;-88
2022/07/02 13:32:25;;;;;;;0.77;0.35;;;32.30;1.00;;;;;;5071955;28;20482;-85
2022/07/02 13:35:15;;;;;;;0.57;0.40;;;32.00;1.00;;;;;;5079881;28;20044;-84
2022/07/02 13:38:03;;;;;;;1.27;0.50;;;31.40;1.00;;;;;;5082878;28;20044;-86
2022/07/02 13:41:03;;;;;;;1.05;0.45;;;30.40;1.00;;;;;;5077268;28;20067;-87
2022/07/02 13:43:57;;;;;;;3.25;0.60;;;30.50;1.00;;;;;;5069973;28;20114;-85
2022/07/02 13:46:51;;;;;;;1.30;0.30;;;31.70;1.00;;;;;;5070158;28;20112;-86
2022/07/02 13:49:38;;;;;;;0.75;0.50;;;31.60;1.00;;;;;;5078279;28;20047;-84
2022/07/02 13:52:28;;;;;;;0.40;0.30;;;31.40;1.00;;;;;;5071743;28;20414;-85
2022/07/02 13:55:17;;;;;;;0.95;0.35;;;31.90;1.00;;;;;;5062365;28;20457;-88
2022/07/02 13:58:04;;;;;;;2.72;0.30;;;32.10;1.00;;;;;;5073258;28;20051;-85
2022/07/02 14:00:53;;;;;;;0.70;0.65;;;31.90;1.00;;;;;;5068745;28;20041;-87
2022/07/02 14:03:40;;;;;;;0.40;0.35;;;32.00;1.00;;;;;;5057714;28;20135;-87
2022/07/02 14:06:36;;;;;;;0.80;0.30;;;32.20;1.00;;;;;;5072181;28;20151;-85
2022/07/02 14:09:26;;;;;;;0.57;0.35;;;32.00;1.00;;;;;;5074029;28;20068;-86
2022/07/02 14:12:14;;;;;;;2.28;0.50;;;32.30;1.00;;;;;;5062556;28;20051;-88
2022/07/02 14:15:01;;;;;;;2.05;0.40;;;32.80;1.00;;;;;;5068550;28;20055;-91
2022/07/02 14:17:48;;;;;;;2.25;0.40;;;32.80;1.00;;;;;;5070525;28;20446;-88
2022/07/02 14:20:37;;;;;;;0.80;0.50;;;32.80;1.00;;;;;;5071758;28;20040;-88
2022/07/02 14:23:26;;;;;;;0.43;0.43;;;32.10;1.00;;;;;;5075298;28;20067;-88
2022/07/02 14:26:13;;;;;;;0.30;0.30;;;32.70;1.00;;;;;;5090937;28;20102;-85
2022/07/02 14:29:01;;;;;;;0.65;0.30;;;32.70;1.00;;;;;;5076464;28;20500;-85
2022/07/02 14:31:50;;;;;;;0.75;0.25;;;32.60;1.00;;;;;;5071278;28;20044;-88
2022/07/02 14:34:38;;;;;;;0.85;0.20;;;32.00;1.00;;;;;;5067168;28;20138;-85
2022/07/02 14:37:35;;;;;;;1.02;0.40;;;32.40;1.00;;;;;;5060605;28;20432;-87
2022/07/02 14:40:23;;;;;;;0.65;0.20;;;32.20;1.00;;;;;;5076587;28;20041;-86
2022/07/02 14:43:13;;;;;;;0.60;0.40;;;33.00;1.00;;;;;;5074418;28;20470;-86
2022/07/02 14:46:02;;;;;;;1.30;0.50;;;32.80;1.00;;;;;;5074283;28;20045;-85
2022/07/02 14:48:49;;;;;;;1.80;0.20;;;31.30;1.00;;;;;;5061272;28;20055;-84
2022/07/02 14:51:36;;;;;;;2.28;0.40;;;31.50;1.00;;;;;;5072466;28;20079;-85
2022/07/02 14:54:24;;;;;;;5.75;0.60;;;31.30;1.00;;;;;;5072899;28;20335;-89
2022/07/02 14:57:11;;;;;;;0.95;0.40;;;30.70;1.00;;;;;;5074133;28;20044;-86
2022/07/02 14:59:58;;;;;;;1.17;0.60;;;30.20;1.00;;;;;;5061272;28;20100;-86
2022/07/02 15:02:49;;;;;;;1.73;0.50;;;30.70;1.00;;;;;;5072912;28;20041;-87
2022/07/02 15:05:36;;;;;;;1.77;0.30;;;31.10;1.00;;;;;;5082722;28;20105;-85